Terminal Aerodrome Forecast
Issued by NWS Shreveport, LA

Home | Current Version | Previous Version | Text Only | Print | Product List | Glossary On
Versions: 1 2 3 4 5 6 7 8 9 10 11 12 13 14
000
FTUS44 KSHV 282300
TAFSHV
TAF
KSHV 282334Z 2900/2924 17007KT P6SM SCT045
      TEMPO 2903/2907 BKN040
     FM290700 19007KT P6SM OVC030
      TEMPO 2907/2911 3SM BR BKN015
     FM291100 19007KT 3SM BR OVC015
     FM291500 19012KT P6SM OVC020
     FM291700 21014G21KT P6SM BKN035
     FM291900 21015G25KT P6SM SCT040=

USA.gov is the U.S. government's official web portal to all federal, state and local government web resources and services.